Time,TemperatureF,DewpointF,PressureIn,WindDirection,WindDirectionDegrees,WindSpeedMPH,WindSpeedGustMPH,Humidity,HourlyPrecipIn,Conditions,Clouds,dailyrainin,SoftwareType,DateUTC
2013-07-03 00:00:00,73.0,70.9,30.15,SW,225,1.0,1.0,93,0.00,,,0.02,Wunderground v.1.15,2013-07-03 04:00:00,
2013-07-03 00:05:00,73.1,71.0,30.15,WSW,247,1.0,1.0,93,0.00,,,0.00,Wunderground v.1.15,2013-07-03 04:05:00,
2013-07-03 00:10:00,73.1,71.0,30.15,SSW,205,1.0,1.0,93,0.00,,,0.00,Wunderground v.1.15,2013-07-03 04:10:00,
2013-07-03 00:15:00,73.1,71.0,30.15,SSW,205,1.0,1.0,93,0.00,,,0.00,Wunderground v.1.15,2013-07-03 04:15:00,
2013-07-03 00:20:00,73.0,70.9,30.14,SSW,205,0.0,0.0,93,0.00,,,0.00,Wunderground v.1.15,2013-07-03 04:20:00,
2013-07-03 00:25:00,72.9,70.8,30.15,SSW,205,0.0,0.0,93,0.00,,,0.00,Wunderground v.1.15,2013-07-03 04:25:00,
2013-07-03 00:35:00,72.7,70.9,30.15,SSW,205,0.0,0.0,94,0.00,,,0.00,Wunderground v.1.15,2013-07-03 04:35:00,
2013-07-03 00:45:00,72.4,70.6,30.15,SSW,205,0.0,0.0,94,0.00,,,0.00,Wunderground v.1.15,2013-07-03 04:45:00,
2013-07-03 00:50:00,72.3,70.5,30.15,SSW,205,0.0,0.0,94,0.00,,,0.00,Wunderground v.1.15,2013-07-03 04:50:00,
2013-07-03 01:00:00,71.9,70.4,30.15,WSW,241,0.0,0.0,95,0.00,,,0.00,Wunderground v.1.15,2013-07-03 05:00:00,
2013-07-03 01:05:00,71.8,70.3,30.15,WSW,241,0.0,0.0,95,0.00,,,0.00,Wunderground v.1.15,2013-07-03 05:05:00,
2013-07-03 01:15:00,71.6,70.1,30.15,WSW,241,0.0,0.0,95,0.00,,,0.00,Wunderground v.1.15,2013-07-03 05:15:00,
2013-07-03 01:20:00,71.5,70.3,30.15,South,181,0.0,0.0,96,0.00,,,0.00,Wunderground v.1.15,2013-07-03 05:20:00,
2013-07-03 01:25:00,71.4,70.2,30.15,SW,223,0.0,0.0,96,0.00,,,0.00,Wunderground v.1.15,2013-07-03 05:25:00,
2013-07-03 01:30:00,71.4,70.2,30.15,SW,223,0.0,0.0,96,0.00,,,0.00,Wunderground v.1.15,2013-07-03 05:30:00,
2013-07-03 01:40:00,71.2,69.7,30.15,SW,223,0.0,0.0,95,0.00,,,0.00,Wunderground v.1.15,2013-07-03 05:40:00,
2013-07-03 01:45:00,71.1,69.9,30.15,SW,234,0.0,0.0,96,0.00,,,0.00,Wunderground v.1.15,2013-07-03 05:45:00,
2013-07-03 01:55:00,71.1,69.9,30.15,SW,233,0.0,0.0,96,0.00,,,0.00,Wunderground v.1.15,2013-07-03 05:55:00,
2013-07-03 02:00:00,71.0,69.8,30.16,SW,233,0.0,1.0,96,0.00,,,0.00,Wunderground v.1.15,2013-07-03 06:00:00,
2013-07-03 02:10:00,70.9,69.7,30.15,SW,224,0.0,0.0,96,0.00,,,0.00,Wunderground v.1.15,2013-07-03 06:10:00,
2013-07-03 02:20:00,70.9,69.7,30.15,SW,224,0.0,0.0,96,0.00,,,0.00,Wunderground v.1.15,2013-07-03 06:20:00,
2013-07-03 02:25:00,70.9,69.7,30.15,SW,224,0.0,0.0,96,0.00,,,0.00,Wunderground v.1.15,2013-07-03 06:25:00,
2013-07-03 02:30:00,70.9,69.7,30.15,SW,224,0.0,0.0,96,0.00,,,0.00,Wunderground v.1.15,2013-07-03 06:30:00,
2013-07-03 02:35:00,70.9,69.7,30.15,SW,224,0.0,0.0,96,0.00,,,0.00,Wunderground v.1.15,2013-07-03 06:35:00,
2013-07-03 02:45:00,70.9,69.7,30.15,WSW,253,1.0,1.0,96,0.00,,,0.00,Wunderground v.1.15,2013-07-03 06:45:00,
2013-07-03 02:55:00,71.0,69.8,30.16,SW,219,1.0,1.0,96,0.00,,,0.00,Wunderground v.1.15,2013-07-03 06:55:00,
2013-07-03 03:00:00,71.1,69.9,30.16,SW,225,1.0,1.0,96,0.00,,,0.00,Wunderground v.1.15,2013-07-03 07:00:00,
2013-07-03 03:10:00,71.0,69.5,30.15,SW,221,0.0,0.0,95,0.00,,,0.00,Wunderground v.1.15,2013-07-03 07:10:00,
2013-07-03 03:15:00,71.0,69.8,30.16,SE,141,0.0,0.0,96,0.00,,,0.00,Wunderground v.1.15,2013-07-03 07:15:00,
2013-07-03 03:20:00,71.0,69.8,30.16,SSE,164,0.0,0.0,96,0.00,,,0.00,Wunderground v.1.15,2013-07-03 07:20:00,
2013-07-03 03:25:00,70.9,69.7,30.16,SSE,164,0.0,0.0,96,0.00,,,0.00,Wunderground v.1.15,2013-07-03 07:25:00,
2013-07-03 03:30:00,70.9,69.7,30.16,SSE,164,0.0,0.0,96,0.00,,,0.00,Wunderground v.1.15,2013-07-03 07:30:00,
2013-07-03 03:40:00,70.7,69.5,30.16,SSW,197,0.0,0.0,96,0.00,,,0.00,Wunderground v.1.15,2013-07-03 07:40:00,
2013-07-03 03:45:00,70.6,69.7,30.16,SSW,197,0.0,0.0,97,0.00,,,0.00,Wunderground v.1.15,2013-07-03 07:45:00,
2013-07-03 03:50:00,70.5,69.3,30.16,SSW,197,0.0,0.0,96,0.00,,,0.00,Wunderground v.1.15,2013-07-03 07:50:00,
2013-07-03 03:55:00,70.3,69.4,30.16,SSW,197,0.0,0.0,97,0.00,,,0.00,Wunderground v.1.15,2013-07-03 07:55:00,
2013-07-03 04:05:00,70.1,69.2,30.16,SSW,197,0.0,0.0,97,0.00,,,0.00,Wunderground v.1.15,2013-07-03 08:05:00,
2013-07-03 04:10:00,70.1,69.2,30.16,SSW,197,0.0,0.0,97,0.00,,,0.00,Wunderground v.1.15,2013-07-03 08:10:00,
2013-07-03 04:20:00,69.9,69.0,30.16,SSW,197,0.0,0.0,97,0.00,,,0.00,Wunderground v.1.15,2013-07-03 08:20:00,
2013-07-03 04:25:00,69.8,68.9,30.16,SSW,197,0.0,0.0,97,0.00,,,0.00,Wunderground v.1.15,2013-07-03 08:25:00,
2013-07-03 04:30:00,69.7,69.1,30.17,SSW,197,0.0,0.0,98,0.00,,,0.00,Wunderground v.1.15,2013-07-03 08:30:00,
2013-07-03 04:40:00,69.6,69.0,30.17,SSW,197,0.0,0.0,98,0.00,,,0.00,Wunderground v.1.15,2013-07-03 08:40:00,
2013-07-03 04:50:00,69.4,68.8,30.17,SSW,197,0.0,0.0,98,0.00,,,0.00,Wunderground v.1.15,2013-07-03 08:50:00,
2013-07-03 04:55:00,69.4,68.8,30.17,SSW,197,0.0,0.0,98,0.00,,,0.00,Wunderground v.1.15,2013-07-03 08:55:00,
2013-07-03 05:00:00,69.4,68.8,30.17,SSW,197,0.0,0.0,98,0.00,,,0.00,Wunderground v.1.15,2013-07-03 09:00:00,
2013-07-03 05:10:00,69.4,68.8,30.18,SSW,197,0.0,0.0,98,0.00,,,0.00,Wunderground v.1.15,2013-07-03 09:10:00,
2013-07-03 05:20:00,69.3,69.0,30.18,SSW,197,0.0,0.0,99,0.00,,,0.00,Wunderground v.1.15,2013-07-03 09:20:00,
2013-07-03 05:25:00,69.3,69.0,30.18,SSW,197,0.0,0.0,99,0.00,,,0.00,Wunderground v.1.15,2013-07-03 09:25:00,
2013-07-03 05:30:00,69.3,69.0,30.18,SSW,197,0.0,0.0,99,0.00,,,0.00,Wunderground v.1.15,2013-07-03 09:30:00,
2013-07-03 05:40:00,69.4,69.1,30.18,SSW,197,0.0,0.0,99,0.00,,,0.00,Wunderground v.1.15,2013-07-03 09:40:00,
2013-07-03 05:45:00,69.4,69.1,30.18,SSW,197,0.0,0.0,99,0.00,,,0.00,Wunderground v.1.15,2013-07-03 09:45:00,
2013-07-03 05:55:00,69.5,69.2,30.18,SSW,197,0.0,0.0,99,0.00,,,0.00,Wunderground v.1.15,2013-07-03 09:55:00,
2013-07-03 06:00:00,69.6,69.3,30.19,SSW,197,0.0,0.0,99,0.00,,,0.00,Wunderground v.1.15,2013-07-03 10:00:00,
2013-07-03 06:05:00,69.6,69.3,30.19,SSW,197,0.0,0.0,99,0.00,,,0.00,Wunderground v.1.15,2013-07-03 10:05:00,
2013-07-03 06:10:00,69.8,69.5,30.19,WSW,254,0.0,0.0,99,0.00,,,0.00,Wunderground v.1.15,2013-07-03 10:10:00,
2013-07-03 06:15:00,69.9,69.6,30.19,WSW,254,0.0,0.0,99,0.00,,,0.00,Wunderground v.1.15,2013-07-03 10:15:00,
2013-07-03 06:25:00,70.1,69.8,30.19,SW,232,0.0,0.0,99,0.00,,,0.00,Wunderground v.1.15,2013-07-03 10:25:00,
2013-07-03 06:35:00,70.3,70.0,30.19,SW,232,0.0,0.0,99,0.00,,,0.00,Wunderground v.1.15,2013-07-03 10:35:00,
2013-07-03 06:40:00,70.3,70.0,30.20,SW,232,0.0,0.0,99,0.00,,,0.00,Wunderground v.1.15,2013-07-03 10:40:00,
2013-07-03 06:45:00,70.4,70.1,30.20,SW,232,0.0,0.0,99,0.00,,,0.00,Wunderground v.1.15,2013-07-03 10:45:00,
2013-07-03 06:50:00,70.5,69.9,30.20,SW,232,0.0,0.0,98,0.00,,,0.00,Wunderground v.1.15,2013-07-03 10:50:00,
2013-07-03 07:05:00,70.7,70.1,30.20,SW,232,0.0,1.0,98,0.00,,,0.00,Wunderground v.1.15,2013-07-03 11:05:00,
2013-07-03 07:10:00,70.8,70.2,30.20,SW,232,0.0,0.0,98,0.00,,,0.00,Wunderground v.1.15,2013-07-03 11:10:00,
2013-07-03 07:15:00,70.9,70.3,30.20,SW,227,0.0,2.0,98,0.00,,,0.00,Wunderground v.1.15,2013-07-03 11:15:00,
2013-07-03 07:20:00,70.9,70.3,30.20,SW,227,0.0,0.0,98,0.00,,,0.00,Wunderground v.1.15,2013-07-03 11:20:00,
2013-07-03 07:25:00,71.1,70.5,30.20,SW,227,0.0,1.0,98,0.00,,,0.00,Wunderground v.1.15,2013-07-03 11:25:00,
2013-07-03 07:30:00,71.1,70.5,30.20,SW,227,0.0,0.0,98,0.00,,,0.00,Wunderground v.1.15,2013-07-03 11:30:00,
2013-07-03 07:35:00,71.2,70.3,30.20,SW,227,0.0,1.0,97,0.00,,,0.00,Wunderground v.1.15,2013-07-03 11:35:00,
2013-07-03 07:45:00,71.4,70.5,30.21,SW,227,0.0,0.0,97,0.00,,,0.00,Wunderground v.1.15,2013-07-03 11:45:00,
2013-07-03 07:50:00,71.5,70.9,30.21,SW,227,0.0,0.0,98,0.00,,,0.00,Wunderground v.1.15,2013-07-03 11:50:00,
2013-07-03 08:00:00,71.7,70.8,30.21,SW,227,0.0,0.0,97,0.00,,,0.00,Wunderground v.1.15,2013-07-03 12:00:00,
2013-07-03 08:10:00,71.9,71.0,30.21,SW,227,0.0,0.0,97,0.00,,,0.00,Wunderground v.1.15,2013-07-03 12:10:00,
2013-07-03 08:15:00,72.0,71.1,30.21,SW,227,0.0,0.0,97,0.00,,,0.00,Wunderground v.1.15,2013-07-03 12:15:00,
2013-07-03 08:20:00,72.2,71.3,30.21,SW,222,0.0,2.0,97,0.00,,,0.00,Wunderground v.1.15,2013-07-03 12:20:00,
2013-07-03 08:25:00,72.3,71.1,30.21,SW,222,0.0,2.0,96,0.00,,,0.00,Wunderground v.1.15,2013-07-03 12:25:00,
2013-07-03 08:35:00,72.7,71.5,30.21,WNW,282,0.0,1.0,96,0.00,,,0.00,Wunderground v.1.15,2013-07-03 12:35:00,
2013-07-03 08:40:00,72.9,71.1,30.22,SSW,201,1.0,1.0,94,0.00,,,0.00,Wunderground v.1.15,2013-07-03 12:40:00,
2013-07-03 08:50:00,73.3,71.5,30.22,SSW,201,0.0,0.0,94,0.00,,,0.00,Wunderground v.1.15,2013-07-03 12:50:00,
2013-07-03 08:55:00,73.5,72.0,30.22,SSW,201,0.0,0.0,95,0.00,,,0.00,Wunderground v.1.15,2013-07-03 12:55:00,
2013-07-03 09:00:00,73.7,72.2,30.22,SSW,201,0.0,0.0,95,0.00,,,0.00,Wunderground v.1.15,2013-07-03 13:00:00,
2013-07-03 09:10:00,73.9,72.4,30.22,SSW,201,0.0,1.0,95,0.00,,,0.00,Wunderground v.1.15,2013-07-03 13:10:00,
2013-07-03 09:20:00,74.4,72.2,30.22,SSW,197,0.0,2.0,93,0.00,,,0.00,Wunderground v.1.15,2013-07-03 13:20:00,
2013-07-03 09:30:00,74.9,72.7,30.21,SW,219,0.0,0.0,93,0.00,,,0.00,Wunderground v.1.15,2013-07-03 13:30:00,
2013-07-03 09:40:00,75.5,73.0,30.21,SW,219,0.0,0.0,92,0.00,,,0.00,Wunderground v.1.15,2013-07-03 13:40:00,
2013-07-03 09:45:00,75.7,72.6,30.21,SSW,213,0.0,1.0,90,0.00,,,0.00,Wunderground v.1.15,2013-07-03 13:45:00,
2013-07-03 09:50:00,76.0,72.9,30.22,SW,220,0.0,1.0,90,0.00,,,0.00,Wunderground v.1.15,2013-07-03 13:50:00,
2013-07-03 09:55:00,76.2,72.7,30.22,WSW,238,1.0,1.0,89,0.00,,,0.00,Wunderground v.1.15,2013-07-03 13:55:00,
2013-07-03 10:00:00,76.4,72.6,30.22,ESE,110,1.0,1.0,88,0.00,,,0.00,Wunderground v.1.15,2013-07-03 14:00:00,
2013-07-03 10:10:00,76.9,73.4,30.22,SW,233,1.0,1.0,89,0.00,,,0.00,Wunderground v.1.15,2013-07-03 14:10:00,
2013-07-03 10:15:00,77.2,73.7,30.22,East,86,1.0,1.0,89,0.00,,,0.00,Wunderground v.1.15,2013-07-03 14:15:00,
2013-07-03 10:25:00,78.0,73.5,30.22,WSW,254,1.0,2.0,86,0.00,,,0.00,Wunderground v.1.15,2013-07-03 14:25:00,
2013-07-03 10:30:00,78.4,73.5,30.22,SW,236,1.0,2.0,85,0.00,,,0.00,Wunderground v.1.15,2013-07-03 14:30:00,
2013-07-03 10:40:00,78.7,74.2,30.22,South,188,1.0,1.0,86,0.00,,,0.00,Wunderground v.1.15,2013-07-03 14:40:00,
2013-07-03 10:45:00,78.8,74.3,30.22,SSW,193,1.0,1.0,86,0.00,,,0.00,Wunderground v.1.15,2013-07-03 14:45:00,
2013-07-03 10:55:00,78.9,74.0,30.22,SSW,207,1.0,1.0,85,0.00,,,0.00,Wunderground v.1.15,2013-07-03 14:55:00,
2013-07-03 11:00:00,78.9,73.7,30.22,SW,218,1.0,3.0,84,0.00,,,0.00,Wunderground v.1.15,2013-07-03 15:00:00,
2013-07-03 11:05:00,78.8,73.6,30.22,NNW,336,1.0,3.0,84,0.00,,,0.00,Wunderground v.1.15,2013-07-03 15:05:00,
2013-07-03 11:10:00,78.7,73.8,30.22,SW,227,1.0,1.0,85,0.00,,,0.00,Wunderground v.1.15,2013-07-03 15:10:00,
2013-07-03 11:15:00,78.6,74.1,30.22,NNW,348,1.0,1.0,86,0.00,,,0.00,Wunderground v.1.15,2013-07-03 15:15:00,
2013-07-03 11:25:00,78.8,73.9,30.21,SW,230,2.0,3.0,85,0.00,,,0.00,Wunderground v.1.15,2013-07-03 15:25:00,
2013-07-03 11:35:00,79.1,73.8,30.21,SW,232,2.0,2.0,84,0.00,,,0.00,Wunderground v.1.15,2013-07-03 15:35:00,
2013-07-03 11:45:00,79.6,74.0,30.21,SW,215,1.0,3.0,83,0.00,,,0.00,Wunderground v.1.15,2013-07-03 15:45:00,
2013-07-03 11:50:00,79.7,73.7,30.21,SSW,211,2.0,4.0,82,0.00,,,0.00,Wunderground v.1.15,2013-07-03 15:50:00,
2013-07-03 11:55:00,79.7,74.1,30.21,SW,229,3.0,7.0,83,0.00,,,0.00,Wunderground v.1.15,2013-07-03 15:55:00,
2013-07-03 12:00:00,80.0,73.6,30.21,SW,219,2.0,2.0,81,0.00,,,0.00,Wunderground v.1.15,2013-07-03 16:00:00,
2013-07-03 12:10:00,80.2,74.6,30.21,SSE,165,2.0,2.0,83,0.00,,,0.00,Wunderground v.1.15,2013-07-03 16:10:00,
2013-07-03 12:15:00,80.1,74.1,30.21,South,186,1.0,2.0,82,0.00,,,0.00,Wunderground v.1.15,2013-07-03 16:15:00,
2013-07-03 12:25:00,80.2,75.3,30.21,South,175,2.0,3.0,85,0.00,,,0.00,Wunderground v.1.15,2013-07-03 16:25:00,
2013-07-03 12:30:00,80.5,74.1,30.21,SSW,203,2.0,2.0,81,0.00,,,0.00,Wunderground v.1.15,2013-07-03 16:30:00,
2013-07-03 12:40:00,81.1,75.8,30.20,South,169,1.0,1.0,84,0.00,,,0.00,Wunderground v.1.15,2013-07-03 16:40:00,
2013-07-03 12:50:00,81.8,76.1,30.20,WSW,254,1.0,3.0,83,0.00,,,0.00,Wunderground v.1.15,2013-07-03 16:50:00,
2013-07-03 12:55:00,82.5,76.1,30.20,South,175,1.0,3.0,81,0.00,,,0.00,Wunderground v.1.15,2013-07-03 16:55:00,
2013-07-03 13:05:00,83.2,76.0,30.20,SSW,201,2.0,5.0,79,0.00,,,0.00,Wunderground v.1.15,2013-07-03 17:05:00,
2013-07-03 13:10:00,83.1,74.7,30.20,SW,228,2.0,3.0,76,0.00,,,0.00,Wunderground v.1.15,2013-07-03 17:10:00,
2013-07-03 13:20:00,82.3,74.7,30.20,WSW,239,2.0,2.0,78,0.00,,,0.00,Wunderground v.1.15,2013-07-03 17:20:00,
2013-07-03 13:30:00,82.6,75.4,30.20,SW,214,1.0,2.0,79,0.00,,,0.00,Wunderground v.1.15,2013-07-03 17:30:00,
2013-07-03 13:40:00,83.0,76.6,30.19,South,184,2.0,2.0,81,0.00,,,0.00,Wunderground v.1.15,2013-07-03 17:40:00,
2013-07-03 13:50:00,83.1,75.1,30.19,SSW,197,1.0,1.0,77,0.00,,,0.00,Wunderground v.1.15,2013-07-03 17:50:00,
2013-07-03 14:00:00,83.0,75.4,30.19,SW,234,2.0,2.0,78,0.00,,,0.00,Wunderground v.1.15,2013-07-03 18:00:00,
2013-07-03 14:10:00,83.3,75.7,30.19,SW,236,2.0,3.0,78,0.00,,,0.00,Wunderground v.1.15,2013-07-03 18:10:00,
2013-07-03 14:20:00,83.1,74.4,30.18,SW,219,1.0,1.0,75,0.00,,,0.00,Wunderground v.1.15,2013-07-03 18:20:00,
2013-07-03 14:25:00,82.8,74.8,30.18,SSW,211,1.0,2.0,77,0.00,,,0.00,Wunderground v.1.15,2013-07-03 18:25:00,
2013-07-03 14:35:00,82.0,74.8,30.18,SW,230,1.0,2.0,79,0.00,,,0.00,Wunderground v.1.15,2013-07-03 18:35:00,
2013-07-03 14:45:00,81.2,75.2,30.18,South,171,0.0,1.0,82,0.00,,,0.00,Wunderground v.1.15,2013-07-03 18:45:00,
2013-07-03 14:50:00,81.0,75.7,30.18,South,171,0.0,0.0,84,0.00,,,0.00,Wunderground v.1.15,2013-07-03 18:50:00,
2013-07-03 15:00:00,81.5,75.8,30.17,SSW,204,1.0,1.0,83,0.00,,,0.00,Wunderground v.1.15,2013-07-03 19:00:00,
2013-07-03 15:10:00,81.4,76.1,30.17,South,182,1.0,1.0,84,0.00,,,0.00,Wunderground v.1.15,2013-07-03 19:10:00,
2013-07-03 15:15:00,81.1,76.2,30.17,South,169,1.0,2.0,85,0.00,,,0.01,Wunderground v.1.15,2013-07-03 19:15:00,
2013-07-03 15:25:00,80.1,75.9,30.17,SW,215,0.0,1.0,87,0.11,,,0.03,Wunderground v.1.15,2013-07-03 19:25:00,
2013-07-03 15:30:00,79.5,75.6,30.17,SSW,213,0.0,1.0,88,0.09,,,0.03,Wunderground v.1.15,2013-07-03 19:30:00,
2013-07-03 15:40:00,78.5,75.0,30.17,SE,144,0.0,0.0,89,0.04,,,0.03,Wunderground v.1.15,2013-07-03 19:40:00,
2013-07-03 15:45:00,78.3,75.5,30.16,SSW,207,1.0,1.0,91,0.00,,,0.03,Wunderground v.1.15,2013-07-03 19:45:00,
2013-07-03 15:50:00,78.5,76.0,30.16,SE,139,1.0,1.0,92,0.00,,,0.03,Wunderground v.1.15,2013-07-03 19:50:00,
2013-07-03 15:55:00,78.7,76.2,30.16,ESE,102,0.0,1.0,92,0.00,,,0.03,Wunderground v.1.15,2013-07-03 19:55:00,
2013-07-03 16:00:00,79.0,77.1,30.16,SW,235,0.0,0.0,94,0.00,,,0.03,Wunderground v.1.15,2013-07-03 20:00:00,
2013-07-03 16:10:00,79.7,76.8,30.16,SW,235,0.0,0.0,91,0.00,,,0.03,Wunderground v.1.15,2013-07-03 20:10:00,
2013-07-03 16:20:00,80.2,77.0,30.15,WNW,290,1.0,1.0,90,0.00,,,0.03,Wunderground v.1.15,2013-07-03 20:20:00,
2013-07-03 16:25:00,80.5,75.9,30.15,SW,230,1.0,3.0,86,0.00,,,0.03,Wunderground v.1.15,2013-07-03 20:25:00,
2013-07-03 16:35:00,80.8,75.9,30.15,SSW,207,2.0,2.0,85,0.00,,,0.03,Wunderground v.1.15,2013-07-03 20:35:00,
2013-07-03 16:40:00,80.9,76.3,30.15,SW,218,1.0,1.0,86,0.00,,,0.03,Wunderground v.1.15,2013-07-03 20:40:00,
2013-07-03 16:50:00,80.8,76.2,30.15,ESE,119,1.0,1.0,86,0.00,,,0.03,Wunderground v.1.15,2013-07-03 20:50:00,
2013-07-03 16:55:00,80.9,77.0,30.15,SE,143,1.0,1.0,88,0.00,,,0.03,Wunderground v.1.15,2013-07-03 20:55:00,
2013-07-03 17:00:00,80.8,76.2,30.15,SSE,159,1.0,1.0,86,0.00,,,0.03,Wunderground v.1.15,2013-07-03 21:00:00,
2013-07-03 17:10:00,80.6,76.4,30.15,SW,221,2.0,2.0,87,0.00,,,0.03,Wunderground v.1.15,2013-07-03 21:10:00,
2013-07-03 17:20:00,80.0,76.1,30.15,ESE,121,0.0,1.0,88,0.00,,,0.03,Wunderground v.1.15,2013-07-03 21:20:00,
2013-07-03 17:30:00,79.6,75.0,30.15,SE,143,0.0,0.0,86,0.00,,,0.03,Wunderground v.1.15,2013-07-03 21:30:00,
2013-07-03 17:35:00,79.5,75.6,30.15,SSE,157,0.0,0.0,88,0.00,,,0.03,Wunderground v.1.15,2013-07-03 21:35:00,
2013-07-03 17:45:00,79.5,76.0,30.15,SW,236,0.0,1.0,89,0.00,,,0.03,Wunderground v.1.15,2013-07-03 21:45:00,
2013-07-03 17:50:00,79.5,76.0,30.15,SW,236,0.0,0.0,89,0.00,,,0.03,Wunderground v.1.15,2013-07-03 21:50:00,
2013-07-03 18:00:00,79.5,76.3,30.15,SW,236,0.0,0.0,90,0.00,,,0.03,Wunderground v.1.15,2013-07-03 22:00:00,
2013-07-03 18:10:00,79.7,76.2,30.14,SSW,203,0.0,0.0,89,0.00,,,0.03,Wunderground v.1.15,2013-07-03 22:10:00,
2013-07-03 18:20:00,79.7,76.2,30.15,SSW,204,0.0,0.0,89,0.00,,,0.03,Wunderground v.1.15,2013-07-03 22:20:00,
2013-07-03 18:25:00,79.6,75.7,30.15,SSW,202,0.0,0.0,88,0.00,,,0.03,Wunderground v.1.15,2013-07-03 22:25:00,
2013-07-03 18:35:00,79.3,75.4,30.15,SSE,167,0.0,1.0,88,0.00,,,0.03,Wunderground v.1.15,2013-07-03 22:35:00,
2013-07-03 18:40:00,79.2,75.3,30.15,NW,304,0.0,1.0,88,0.00,,,0.03,Wunderground v.1.15,2013-07-03 22:40:00,
2013-07-03 18:50:00,78.9,75.0,30.15,South,185,0.0,1.0,88,0.00,,,0.03,Wunderground v.1.15,2013-07-03 22:50:00,
2013-07-03 18:55:00,78.8,75.3,30.15,South,185,0.0,1.0,89,0.00,,,0.03,Wunderground v.1.15,2013-07-03 22:55:00,
2013-07-03 19:01:00,78.7,75.2,30.15,South,185,0.0,0.0,89,0.00,,,0.03,Wunderground v.1.15,2013-07-03 23:01:00,
2013-07-03 19:10:00,78.5,75.3,30.15,South,185,0.0,0.0,90,0.00,,,0.03,Wunderground v.1.15,2013-07-03 23:10:00,
2013-07-03 19:20:00,78.3,75.5,30.15,South,185,0.0,0.0,91,0.00,,,0.03,Wunderground v.1.15,2013-07-03 23:20:00,
2013-07-03 19:30:00,77.9,75.1,30.15,South,184,0.0,0.0,91,0.00,,,0.03,Wunderground v.1.15,2013-07-03 23:30:00,
2013-07-03 19:40:00,77.7,74.9,30.16,South,184,0.0,0.0,91,0.00,,,0.03,Wunderground v.1.15,2013-07-03 23:40:00,
2013-07-03 19:45:00,77.6,75.1,30.16,South,184,0.0,0.0,92,0.00,,,0.03,Wunderground v.1.15,2013-07-03 23:45:00,
2013-07-03 19:55:00,77.2,74.7,30.16,SSW,192,0.0,0.0,92,0.00,,,0.03,Wunderground v.1.15,2013-07-03 23:55:00,
2013-07-03 20:00:00,77.1,74.6,30.16,SSW,192,0.0,0.0,92,0.00,,,0.03,Wunderground v.1.15,2013-07-04 00:00:00,
2013-07-03 20:10:00,77.0,74.8,30.16,SSW,192,0.0,0.0,93,0.00,,,0.03,Wunderground v.1.15,2013-07-04 00:10:00,
2013-07-03 20:15:00,76.9,74.7,30.16,SSW,192,0.0,0.0,93,0.00,,,0.03,Wunderground v.1.15,2013-07-04 00:15:00,
2013-07-03 20:25:00,76.6,74.1,30.16,SSW,192,0.0,0.0,92,0.00,,,0.03,Wunderground v.1.15,2013-07-04 00:25:00,
2013-07-03 20:30:00,76.4,74.2,30.16,South,189,0.0,0.0,93,0.00,,,0.03,Wunderground v.1.15,2013-07-04 00:30:00,
2013-07-03 20:45:00,75.9,73.7,30.16,South,177,0.0,0.0,93,0.00,,,0.03,Wunderground v.1.15,2013-07-04 00:45:00,
2013-07-03 20:50:00,75.6,73.8,30.17,South,177,0.0,0.0,94,0.00,,,0.03,Wunderground v.1.15,2013-07-04 00:50:00,
2013-07-03 21:00:00,75.3,73.5,30.17,South,177,0.0,0.0,94,0.00,,,0.03,Wunderground v.1.15,2013-07-04 01:00:00,
2013-07-03 21:10:00,75.0,73.5,30.17,South,177,0.0,0.0,95,0.00,,,0.03,Wunderground v.1.15,2013-07-04 01:10:00,
2013-07-03 21:15:00,74.8,73.3,30.17,South,177,0.0,0.0,95,0.00,,,0.03,Wunderground v.1.15,2013-07-04 01:15:00,
2013-07-03 21:25:00,74.5,73.3,30.17,South,177,0.0,0.0,96,0.00,,,0.03,Wunderground v.1.15,2013-07-04 01:25:00,
2013-07-03 21:35:00,74.3,73.1,30.18,South,177,0.0,0.0,96,0.00,,,0.03,Wunderground v.1.15,2013-07-04 01:35:00,
2013-07-03 21:45:00,74.1,73.2,30.18,South,177,0.0,0.0,97,0.00,,,0.03,Wunderground v.1.15,2013-07-04 01:45:00,
2013-07-03 21:50:00,73.9,72.7,30.19,South,177,0.0,0.0,96,0.00,,,0.03,Wunderground v.1.15,2013-07-04 01:50:00,
2013-07-03 22:00:00,73.7,72.8,30.19,South,177,0.0,0.0,97,0.00,,,0.03,Wunderground v.1.15,2013-07-04 02:00:00,
2013-07-03 22:10:00,73.5,72.9,30.18,South,177,0.0,0.0,98,0.00,,,0.03,Wunderground v.1.15,2013-07-04 02:10:00,
2013-07-03 22:15:00,73.4,72.8,30.18,South,177,0.0,0.0,98,0.00,,,0.03,Wunderground v.1.15,2013-07-04 02:15:00,
2013-07-03 22:25:00,73.2,72.6,30.18,South,177,0.0,0.0,98,0.00,,,0.03,Wunderground v.1.15,2013-07-04 02:25:00,
2013-07-03 22:40:00,73.0,72.4,30.18,South,177,0.0,0.0,98,0.00,,,0.03,Wunderground v.1.15,2013-07-04 02:40:00,
2013-07-03 22:50:00,72.8,72.2,30.18,South,177,0.0,0.0,98,0.00,,,0.03,Wunderground v.1.15,2013-07-04 02:50:00,
2013-07-03 22:55:00,72.7,72.1,30.18,South,177,0.0,0.0,98,0.00,,,0.03,Wunderground v.1.15,2013-07-04 02:55:00,
2013-07-03 23:00:00,72.7,72.1,30.18,South,177,0.0,0.0,98,0.00,,,0.03,Wunderground v.1.15,2013-07-04 03:00:00,
2013-07-03 23:05:00,72.7,72.4,30.18,South,177,0.0,0.0,99,0.00,,,0.03,Wunderground v.1.15,2013-07-04 03:05:00,
2013-07-03 23:15:00,72.6,72.3,30.19,South,177,0.0,0.0,99,0.00,,,0.03,Wunderground v.1.15,2013-07-04 03:15:00,
2013-07-03 23:20:00,72.6,72.3,30.19,South,177,0.0,0.0,99,0.00,,,0.03,Wunderground v.1.15,2013-07-04 03:20:00,
2013-07-03 23:30:00,72.7,72.4,30.19,South,177,0.0,0.0,99,0.00,,,0.03,Wunderground v.1.15,2013-07-04 03:30:00,
2013-07-03 23:40:00,72.7,72.4,30.19,South,177,0.0,0.0,99,0.00,,,0.03,Wunderground v.1.15,2013-07-04 03:40:00,
2013-07-03 23:50:00,72.8,72.8,30.19,SW,222,0.0,0.0,100,0.00,,,0.03,Wunderground v.1.15,2013-07-04 03:50:00,